sensor_id;sensor_type;location;lat;lon;timestamp;P1;durP1;ratioP1;P2;durP2;ratioP2
11771;SDS011;12556;55.748;13.194;2023-02-28T00:00:32;7.83;;;6.33;;
11771;SDS011;12556;55.748;13.194;2023-02-28T00:02:59;7.73;;;7.03;;
11771;SDS011;12556;55.748;13.194;2023-02-28T00:05:27;10.40;;;6.47;;
11771;SDS011;12556;55.748;13.194;2023-02-28T00:07:54;7.83;;;5.93;;
11771;SDS011;12556;55.748;13.194;2023-02-28T00:10:22;9.53;;;6.27;;
11771;SDS011;12556;55.748;13.194;2023-02-28T00:12:53;12.13;;;6.43;;
11771;SDS011;12556;55.748;13.194;2023-02-28T00:15:22;9.87;;;6.47;;
11771;SDS011;12556;55.748;13.194;2023-02-28T00:17:49;9.23;;;6.53;;
11771;SDS011;12556;55.748;13.194;2023-02-28T00:20:17;8.87;;;6.77;;
11771;SDS011;12556;55.748;13.194;2023-02-28T00:22:45;12.00;;;6.83;;
11771;SDS011;12556;55.748;13.194;2023-02-28T00:25:14;7.97;;;6.30;;
11771;SDS011;12556;55.748;13.194;2023-02-28T00:27:42;11.37;;;7.07;;
11771;SDS011;12556;55.748;13.194;2023-02-28T00:30:12;10.40;;;7.17;;
11771;SDS011;12556;55.748;13.194;2023-02-28T00:32:41;8.57;;;6.63;;
11771;SDS011;12556;55.748;13.194;2023-02-28T00:35:08;13.23;;;7.17;;
11771;SDS011;12556;55.748;13.194;2023-02-28T00:37:36;13.73;;;7.33;;
11771;SDS011;12556;55.748;13.194;2023-02-28T00:40:03;11.50;;;6.57;;
11771;SDS011;12556;55.748;13.194;2023-02-28T00:42:31;13.97;;;7.30;;
11771;SDS011;12556;55.748;13.194;2023-02-28T00:44:59;13.40;;;6.73;;
11771;SDS011;12556;55.748;13.194;2023-02-28T00:47:27;11.07;;;7.60;;
11771;SDS011;12556;55.748;13.194;2023-02-28T00:49:54;12.63;;;7.40;;
11771;SDS011;12556;55.748;13.194;2023-02-28T00:52:21;12.43;;;8.07;;
11771;SDS011;12556;55.748;13.194;2023-02-28T00:54:48;15.53;;;7.80;;
11771;SDS011;12556;55.748;13.194;2023-02-28T00:57:15;10.90;;;7.40;;
11771;SDS011;12556;55.748;13.194;2023-02-28T00:59:42;14.63;;;7.80;;
11771;SDS011;12556;55.748;13.194;2023-02-28T01:02:09;13.60;;;7.73;;
11771;SDS011;12556;55.748;13.194;2023-02-28T01:04:37;14.03;;;7.53;;
11771;SDS011;12556;55.748;13.194;2023-02-28T01:07:04;10.90;;;7.80;;
11771;SDS011;12556;55.748;13.194;2023-02-28T01:09:31;14.77;;;7.57;;
11771;SDS011;12556;55.748;13.194;2023-02-28T01:11:58;10.17;;;8.17;;
11771;SDS011;12556;55.748;13.194;2023-02-28T01:14:24;14.53;;;7.50;;
11771;SDS011;12556;55.748;13.194;2023-02-28T01:16:51;11.87;;;7.73;;
11771;SDS011;12556;55.748;13.194;2023-02-28T01:19:18;10.77;;;7.90;;
11771;SDS011;12556;55.748;13.194;2023-02-28T01:21:46;12.60;;;8.33;;
11771;SDS011;12556;55.748;13.194;2023-02-28T01:24:13;9.33;;;7.43;;
11771;SDS011;12556;55.748;13.194;2023-02-28T01:26:40;12.47;;;7.07;;
11771;SDS011;12556;55.748;13.194;2023-02-28T01:29:07;13.00;;;8.07;;
11771;SDS011;12556;55.748;13.194;2023-02-28T01:31:34;11.33;;;7.97;;
11771;SDS011;12556;55.748;13.194;2023-02-28T01:34:01;10.63;;;7.83;;
11771;SDS011;12556;55.748;13.194;2023-02-28T01:36:28;10.97;;;8.60;;
11771;SDS011;12556;55.748;13.194;2023-02-28T01:38:56;15.00;;;7.70;;
11771;SDS011;12556;55.748;13.194;2023-02-28T01:41:24;11.03;;;8.27;;
11771;SDS011;12556;55.748;13.194;2023-02-28T01:43:58;12.43;;;7.97;;
11771;SDS011;12556;55.748;13.194;2023-02-28T01:46:28;13.33;;;8.33;;
11771;SDS011;12556;55.748;13.194;2023-02-28T01:48:56;11.37;;;8.00;;
11771;SDS011;12556;55.748;13.194;2023-02-28T01:51:28;14.93;;;9.13;;
11771;SDS011;12556;55.748;13.194;2023-02-28T01:53:59;13.53;;;8.00;;
11771;SDS011;12556;55.748;13.194;2023-02-28T01:56:32;10.50;;;8.10;;
11771;SDS011;12556;55.748;13.194;2023-02-28T01:59:02;14.27;;;8.27;;
11771;SDS011;12556;55.748;13.194;2023-02-28T02:01:29;12.20;;;7.77;;
11771;SDS011;12556;55.748;13.194;2023-02-28T02:03:57;11.60;;;7.77;;
11771;SDS011;12556;55.748;13.194;2023-02-28T02:06:28;11.70;;;8.30;;
11771;SDS011;12556;55.748;13.194;2023-02-28T02:09:01;11.07;;;8.20;;
11771;SDS011;12556;55.748;13.194;2023-02-28T02:11:28;10.83;;;8.23;;
11771;SDS011;12556;55.748;13.194;2023-02-28T02:14:02;12.60;;;8.37;;
11771;SDS011;12556;55.748;13.194;2023-02-28T02:17:04;10.10;;;8.00;;
11771;SDS011;12556;55.748;13.194;2023-02-28T02:20:04;12.87;;;8.57;;
11771;SDS011;12556;55.748;13.194;2023-02-28T02:23:05;10.33;;;7.83;;
11771;SDS011;12556;55.748;13.194;2023-02-28T02:25:49;11.97;;;8.40;;
11771;SDS011;12556;55.748;13.194;2023-02-28T02:28:30;18.57;;;9.10;;
11771;SDS011;12556;55.748;13.194;2023-02-28T02:37:17;16.23;;;9.20;;
11771;SDS011;12556;55.748;13.194;2023-02-28T02:39:54;15.17;;;10.97;;
11771;SDS011;12556;55.748;13.194;2023-02-28T02:42:27;15.87;;;11.50;;
11771;SDS011;12556;55.748;13.194;2023-02-28T02:44:58;15.10;;;11.23;;
11771;SDS011;12556;55.748;13.194;2023-02-28T02:47:28;13.83;;;10.17;;
11771;SDS011;12556;55.748;13.194;2023-02-28T02:49:59;20.13;;;11.60;;
11771;SDS011;12556;55.748;13.194;2023-02-28T02:52:30;14.00;;;10.50;;
11771;SDS011;12556;55.748;13.194;2023-02-28T02:55:02;16.93;;;10.83;;
11771;SDS011;12556;55.748;13.194;2023-02-28T02:57:32;12.77;;;9.77;;
11771;SDS011;12556;55.748;13.194;2023-02-28T03:00:03;18.93;;;9.80;;
11771;SDS011;12556;55.748;13.194;2023-02-28T03:02:33;17.60;;;9.90;;
11771;SDS011;12556;55.748;13.194;2023-02-28T03:05:04;14.50;;;9.70;;
11771;SDS011;12556;55.748;13.194;2023-02-28T03:07:38;15.07;;;9.20;;
11771;SDS011;12556;55.748;13.194;2023-02-28T03:12:56;13.10;;;9.57;;
11771;SDS011;12556;55.748;13.194;2023-02-28T03:15:35;15.83;;;9.60;;
11771;SDS011;12556;55.748;13.194;2023-02-28T03:18:10;13.03;;;9.10;;
11771;SDS011;12556;55.748;13.194;2023-02-28T03:20:48;18.07;;;11.87;;
11771;SDS011;12556;55.748;13.194;2023-02-28T03:23:23;17.17;;;12.57;;
11771;SDS011;12556;55.748;13.194;2023-02-28T03:25:59;19.67;;;12.53;;
11771;SDS011;12556;55.748;13.194;2023-02-28T03:28:31;24.30;;;13.73;;
11771;SDS011;12556;55.748;13.194;2023-02-28T03:31:07;22.63;;;14.17;;
11771;SDS011;12556;55.748;13.194;2023-02-28T03:33:41;29.10;;;16.53;;
11771;SDS011;12556;55.748;13.194;2023-02-28T03:36:12;24.73;;;16.03;;
11771;SDS011;12556;55.748;13.194;2023-02-28T03:38:44;29.07;;;16.80;;
11771;SDS011;12556;55.748;13.194;2023-02-28T03:41:16;25.63;;;15.50;;
11771;SDS011;12556;55.748;13.194;2023-02-28T03:43:47;28.17;;;16.33;;
11771;SDS011;12556;55.748;13.194;2023-02-28T03:46:21;25.30;;;15.87;;
11771;SDS011;12556;55.748;13.194;2023-02-28T03:48:53;27.67;;;16.23;;
11771;SDS011;12556;55.748;13.194;2023-02-28T03:51:26;24.77;;;15.80;;
11771;SDS011;12556;55.748;13.194;2023-02-28T03:53:56;25.57;;;15.17;;
11771;SDS011;12556;55.748;13.194;2023-02-28T03:56:30;31.17;;;15.57;;
11771;SDS011;12556;55.748;13.194;2023-02-28T03:59:02;22.20;;;15.17;;
11771;SDS011;12556;55.748;13.194;2023-02-28T04:01:33;25.13;;;15.17;;
11771;SDS011;12556;55.748;13.194;2023-02-28T04:04:04;21.67;;;13.87;;
11771;SDS011;12556;55.748;13.194;2023-02-28T04:06:32;23.23;;;16.63;;
11771;SDS011;12556;55.748;13.194;2023-02-28T04:09:00;23.00;;;13.27;;
11771;SDS011;12556;55.748;13.194;2023-02-28T04:11:30;21.40;;;14.43;;
11771;SDS011;12556;55.748;13.194;2023-02-28T04:14:00;20.17;;;14.47;;
11771;SDS011;12556;55.748;13.194;2023-02-28T04:16:27;25.33;;;15.03;;
11771;SDS011;12556;55.748;13.194;2023-02-28T04:18:55;21.27;;;13.47;;
11771;SDS011;12556;55.748;13.194;2023-02-28T04:21:27;19.97;;;14.23;;
11771;SDS011;12556;55.748;13.194;2023-02-28T04:23:55;23.30;;;13.87;;
11771;SDS011;12556;55.748;13.194;2023-02-28T04:26:25;22.53;;;13.60;;
11771;SDS011;12556;55.748;13.194;2023-02-28T04:28:54;18.63;;;12.63;;
11771;SDS011;12556;55.748;13.194;2023-02-28T04:31:21;26.07;;;14.10;;
11771;SDS011;12556;55.748;13.194;2023-02-28T04:33:48;17.30;;;13.00;;
11771;SDS011;12556;55.748;13.194;2023-02-28T04:36:15;17.03;;;12.77;;
11771;SDS011;12556;55.748;13.194;2023-02-28T04:38:43;15.93;;;11.47;;
11771;SDS011;12556;55.748;13.194;2023-02-28T04:41:12;20.00;;;12.27;;
11771;SDS011;12556;55.748;13.194;2023-02-28T04:43:39;18.70;;;12.93;;
11771;SDS011;12556;55.748;13.194;2023-02-28T04:46:06;18.63;;;12.33;;
11771;SDS011;12556;55.748;13.194;2023-02-28T04:48:34;18.80;;;12.53;;
11771;SDS011;12556;55.748;13.194;2023-02-28T04:51:02;22.97;;;12.50;;
11771;SDS011;12556;55.748;13.194;2023-02-28T04:53:31;19.00;;;11.90;;
11771;SDS011;12556;55.748;13.194;2023-02-28T04:55:59;17.17;;;10.67;;
11771;SDS011;12556;55.748;13.194;2023-02-28T04:58:27;18.60;;;11.30;;
11771;SDS011;12556;55.748;13.194;2023-02-28T05:00:57;18.30;;;11.00;;
11771;SDS011;12556;55.748;13.194;2023-02-28T05:03:28;17.20;;;11.53;;
11771;SDS011;12556;55.748;13.194;2023-02-28T05:05:55;16.50;;;11.70;;
11771;SDS011;12556;55.748;13.194;2023-02-28T05:08:22;14.93;;;11.60;;
11771;SDS011;12556;55.748;13.194;2023-02-28T05:10:48;15.47;;;10.77;;
11771;SDS011;12556;55.748;13.194;2023-02-28T05:13:15;16.13;;;10.93;;
11771;SDS011;12556;55.748;13.194;2023-02-28T05:15:44;20.47;;;10.57;;
11771;SDS011;12556;55.748;13.194;2023-02-28T05:18:11;18.73;;;11.63;;
11771;SDS011;12556;55.748;13.194;2023-02-28T05:20:38;16.70;;;11.27;;
11771;SDS011;12556;55.748;13.194;2023-02-28T05:23:05;20.30;;;11.93;;
11771;SDS011;12556;55.748;13.194;2023-02-28T05:25:31;19.60;;;11.90;;
11771;SDS011;12556;55.748;13.194;2023-02-28T05:27:58;17.87;;;12.37;;
11771;SDS011;12556;55.748;13.194;2023-02-28T05:30:25;21.13;;;12.93;;
11771;SDS011;12556;55.748;13.194;2023-02-28T05:32:53;17.40;;;11.93;;
11771;SDS011;12556;55.748;13.194;2023-02-28T05:35:20;19.23;;;12.50;;
11771;SDS011;12556;55.748;13.194;2023-02-28T05:37:47;19.63;;;13.30;;
11771;SDS011;12556;55.748;13.194;2023-02-28T05:40:14;30.07;;;13.20;;
11771;SDS011;12556;55.748;13.194;2023-02-28T05:42:41;18.70;;;12.63;;
11771;SDS011;12556;55.748;13.194;2023-02-28T05:45:08;25.17;;;14.50;;
11771;SDS011;12556;55.748;13.194;2023-02-28T05:47:36;22.10;;;14.00;;
11771;SDS011;12556;55.748;13.194;2023-02-28T05:50:05;25.40;;;14.10;;
11771;SDS011;12556;55.748;13.194;2023-02-28T05:52:34;19.97;;;12.60;;
11771;SDS011;12556;55.748;13.194;2023-02-28T05:55:01;21.20;;;12.90;;
11771;SDS011;12556;55.748;13.194;2023-02-28T05:57:28;19.67;;;12.77;;
11771;SDS011;12556;55.748;13.194;2023-02-28T05:59:55;18.57;;;13.07;;
11771;SDS011;12556;55.748;13.194;2023-02-28T06:02:22;19.33;;;13.40;;
11771;SDS011;12556;55.748;13.194;2023-02-28T06:04:48;22.50;;;13.90;;
11771;SDS011;12556;55.748;13.194;2023-02-28T06:07:17;21.90;;;13.83;;
11771;SDS011;12556;55.748;13.194;2023-02-28T06:09:44;21.47;;;13.77;;
11771;SDS011;12556;55.748;13.194;2023-02-28T06:12:10;24.20;;;13.87;;
11771;SDS011;12556;55.748;13.194;2023-02-28T06:14:37;19.77;;;12.53;;
11771;SDS011;12556;55.748;13.194;2023-02-28T06:17:04;20.77;;;14.13;;
11771;SDS011;12556;55.748;13.194;2023-02-28T06:19:31;22.13;;;13.83;;
11771;SDS011;12556;55.748;13.194;2023-02-28T06:21:58;20.17;;;12.57;;
11771;SDS011;12556;55.748;13.194;2023-02-28T06:24:27;19.57;;;13.73;;
11771;SDS011;12556;55.748;13.194;2023-02-28T06:26:55;23.33;;;13.77;;
11771;SDS011;12556;55.748;13.194;2023-02-28T06:29:23;23.50;;;14.67;;
11771;SDS011;12556;55.748;13.194;2023-02-28T06:31:50;25.60;;;14.83;;
11771;SDS011;12556;55.748;13.194;2023-02-28T06:34:17;22.00;;;14.50;;
11771;SDS011;12556;55.748;13.194;2023-02-28T06:36:44;24.23;;;16.23;;
11771;SDS011;12556;55.748;13.194;2023-02-28T06:39:11;22.77;;;15.00;;
11771;SDS011;12556;55.748;13.194;2023-02-28T06:41:39;21.53;;;13.87;;
11771;SDS011;12556;55.748;13.194;2023-02-28T06:44:10;24.07;;;13.40;;
11771;SDS011;12556;55.748;13.194;2023-02-28T06:46:38;24.00;;;13.73;;
11771;SDS011;12556;55.748;13.194;2023-02-28T06:49:06;20.07;;;12.50;;
11771;SDS011;12556;55.748;13.194;2023-02-28T06:51:35;25.33;;;13.47;;
11771;SDS011;12556;55.748;13.194;2023-02-28T06:54:02;20.03;;;13.50;;
11771;SDS011;12556;55.748;13.194;2023-02-28T06:56:30;24.23;;;13.30;;
11771;SDS011;12556;55.748;13.194;2023-02-28T06:58:59;21.73;;;14.23;;
11771;SDS011;12556;55.748;13.194;2023-02-28T07:01:26;23.63;;;15.03;;
11771;SDS011;12556;55.748;13.194;2023-02-28T07:03:53;26.40;;;15.53;;
11771;SDS011;12556;55.748;13.194;2023-02-28T07:06:21;23.13;;;13.97;;
11771;SDS011;12556;55.748;13.194;2023-02-28T07:08:48;22.30;;;14.47;;
11771;SDS011;12556;55.748;13.194;2023-02-28T07:11:15;26.10;;;14.87;;
11771;SDS011;12556;55.748;13.194;2023-02-28T07:13:42;23.13;;;15.40;;
11771;SDS011;12556;55.748;13.194;2023-02-28T07:16:11;25.57;;;15.83;;
11771;SDS011;12556;55.748;13.194;2023-02-28T07:18:38;29.77;;;17.20;;
11771;SDS011;12556;55.748;13.194;2023-02-28T07:21:06;24.63;;;15.70;;
11771;SDS011;12556;55.748;13.194;2023-02-28T07:23:36;25.57;;;16.10;;
11771;SDS011;12556;55.748;13.194;2023-02-28T07:26:04;23.13;;;15.87;;
11771;SDS011;12556;55.748;13.194;2023-02-28T07:28:31;30.00;;;19.67;;
11771;SDS011;12556;55.748;13.194;2023-02-28T07:31:02;29.33;;;17.47;;
11771;SDS011;12556;55.748;13.194;2023-02-28T07:33:31;63.90;;;18.90;;
11771;SDS011;12556;55.748;13.194;2023-02-28T07:36:02;55.70;;;18.77;;
11771;SDS011;12556;55.748;13.194;2023-02-28T07:38:33;73.10;;;18.27;;
11771;SDS011;12556;55.748;13.194;2023-02-28T07:41:00;56.90;;;17.30;;
11771;SDS011;12556;55.748;13.194;2023-02-28T07:43:29;43.20;;;16.53;;
11771;SDS011;12556;55.748;13.194;2023-02-28T07:46:00;32.17;;;15.93;;
11771;SDS011;12556;55.748;13.194;2023-02-28T07:48:28;29.67;;;15.30;;
11771;SDS011;12556;55.748;13.194;2023-02-28T07:50:56;34.93;;;15.23;;
11771;SDS011;12556;55.748;13.194;2023-02-28T07:53:24;42.40;;;17.23;;
11771;SDS011;12556;55.748;13.194;2023-02-28T07:55:54;39.00;;;16.57;;
11771;SDS011;12556;55.748;13.194;2023-02-28T07:58:22;37.73;;;15.30;;
11771;SDS011;12556;55.748;13.194;2023-02-28T08:00:49;36.37;;;15.83;;
11771;SDS011;12556;55.748;13.194;2023-02-28T08:03:16;41.30;;;15.83;;
11771;SDS011;12556;55.748;13.194;2023-02-28T08:05:44;43.30;;;16.73;;
11771;SDS011;12556;55.748;13.194;2023-02-28T08:08:13;59.70;;;17.03;;
11771;SDS011;12556;55.748;13.194;2023-02-28T08:10:40;43.20;;;16.43;;
11771;SDS011;12556;55.748;13.194;2023-02-28T08:13:07;60.90;;;18.23;;
11771;SDS011;12556;55.748;13.194;2023-02-28T08:15:34;70.67;;;17.73;;
11771;SDS011;12556;55.748;13.194;2023-02-28T08:18:01;116.47;;;20.87;;
11771;SDS011;12556;55.748;13.194;2023-02-28T08:20:28;77.53;;;19.23;;
11771;SDS011;12556;55.748;13.194;2023-02-28T08:22:55;89.37;;;18.97;;
11771;SDS011;12556;55.748;13.194;2023-02-28T08:25:24;53.77;;;16.70;;
11771;SDS011;12556;55.748;13.194;2023-02-28T08:27:51;52.43;;;15.83;;
11771;SDS011;12556;55.748;13.194;2023-02-28T08:30:18;88.83;;;18.40;;
11771;SDS011;12556;55.748;13.194;2023-02-28T08:32:45;64.73;;;16.03;;
11771;SDS011;12556;55.748;13.194;2023-02-28T08:35:12;56.33;;;13.67;;
11771;SDS011;12556;55.748;13.194;2023-02-28T08:37:39;40.83;;;14.50;;
11771;SDS011;12556;55.748;13.194;2023-02-28T08:40:06;29.40;;;13.43;;
11771;SDS011;12556;55.748;13.194;2023-02-28T08:42:36;42.97;;;11.70;;
11771;SDS011;12556;55.748;13.194;2023-02-28T08:45:03;35.53;;;12.63;;
11771;SDS011;12556;55.748;13.194;2023-02-28T08:47:30;28.97;;;13.33;;
11771;SDS011;12556;55.748;13.194;2023-02-28T08:49:57;41.43;;;13.63;;
11771;SDS011;12556;55.748;13.194;2023-02-28T08:52:24;46.47;;;12.93;;
11771;SDS011;12556;55.748;13.194;2023-02-28T08:54:51;48.27;;;14.87;;
11771;SDS011;12556;55.748;13.194;2023-02-28T08:57:18;30.77;;;13.27;;
11771;SDS011;12556;55.748;13.194;2023-02-28T08:59:46;20.73;;;12.33;;
11771;SDS011;12556;55.748;13.194;2023-02-28T09:02:13;24.90;;;13.40;;
11771;SDS011;12556;55.748;13.194;2023-02-28T09:04:40;27.00;;;11.93;;
11771;SDS011;12556;55.748;13.194;2023-02-28T09:07:10;21.87;;;12.23;;
11771;SDS011;12556;55.748;13.194;2023-02-28T09:09:37;21.53;;;12.60;;
11771;SDS011;12556;55.748;13.194;2023-02-28T09:12:19;21.37;;;12.57;;
11771;SDS011;12556;55.748;13.194;2023-02-28T09:14:47;27.97;;;11.50;;
11771;SDS011;12556;55.748;13.194;2023-02-28T09:17:14;34.47;;;12.97;;
11771;SDS011;12556;55.748;13.194;2023-02-28T09:19:41;28.30;;;12.60;;
11771;SDS011;12556;55.748;13.194;2023-02-28T09:22:08;18.43;;;12.07;;
11771;SDS011;12556;55.748;13.194;2023-02-28T09:24:36;18.67;;;12.70;;
11771;SDS011;12556;55.748;13.194;2023-02-28T09:27:03;21.87;;;13.23;;
11771;SDS011;12556;55.748;13.194;2023-02-28T09:29:30;20.67;;;14.27;;
11771;SDS011;12556;55.748;13.194;2023-02-28T09:31:59;18.83;;;13.03;;
11771;SDS011;12556;55.748;13.194;2023-02-28T09:34:27;19.97;;;13.80;;
11771;SDS011;12556;55.748;13.194;2023-02-28T09:36:55;20.50;;;13.43;;
11771;SDS011;12556;55.748;13.194;2023-02-28T09:39:22;19.43;;;12.60;;
11771;SDS011;12556;55.748;13.194;2023-02-28T09:41:52;16.57;;;13.50;;
11771;SDS011;12556;55.748;13.194;2023-02-28T09:44:26;18.30;;;13.03;;
11771;SDS011;12556;55.748;13.194;2023-02-28T09:46:56;18.60;;;11.73;;
11771;SDS011;12556;55.748;13.194;2023-02-28T09:49:31;17.00;;;12.47;;
11771;SDS011;12556;55.748;13.194;2023-02-28T09:52:06;20.67;;;12.40;;
11771;SDS011;12556;55.748;13.194;2023-02-28T09:54:37;21.83;;;13.80;;
11771;SDS011;12556;55.748;13.194;2023-02-28T09:57:06;18.23;;;12.80;;
11771;SDS011;12556;55.748;13.194;2023-02-28T09:59:39;15.93;;;12.27;;
11771;SDS011;12556;55.748;13.194;2023-02-28T10:02:32;17.03;;;11.57;;
11771;SDS011;12556;55.748;13.194;2023-02-28T10:05:24;15.70;;;11.83;;
11771;SDS011;12556;55.748;13.194;2023-02-28T10:07:58;15.87;;;11.97;;
11771;SDS011;12556;55.748;13.194;2023-02-28T10:10:33;17.57;;;11.40;;
11771;SDS011;12556;55.748;13.194;2023-02-28T10:13:05;16.17;;;12.13;;
11771;SDS011;12556;55.748;13.194;2023-02-28T10:15:39;17.53;;;10.83;;
11771;SDS011;12556;55.748;13.194;2023-02-28T10:18:08;16.50;;;11.23;;
11771;SDS011;12556;55.748;13.194;2023-02-28T10:20:40;14.57;;;10.90;;
11771;SDS011;12556;55.748;13.194;2023-02-28T10:23:11;14.00;;;10.73;;
11771;SDS011;12556;55.748;13.194;2023-02-28T10:25:43;14.47;;;10.50;;
11771;SDS011;12556;55.748;13.194;2023-02-28T10:28:16;17.33;;;10.83;;
11771;SDS011;12556;55.748;13.194;2023-02-28T10:30:45;13.77;;;10.47;;
11771;SDS011;12556;55.748;13.194;2023-02-28T10:33:18;16.17;;;10.83;;
11771;SDS011;12556;55.748;13.194;2023-02-28T10:35:50;15.97;;;10.23;;
11771;SDS011;12556;55.748;13.194;2023-02-28T10:38:19;15.00;;;10.43;;
11771;SDS011;12556;55.748;13.194;2023-02-28T10:40:47;13.80;;;10.63;;
11771;SDS011;12556;55.748;13.194;2023-02-28T10:43:21;13.53;;;9.43;;
11771;SDS011;12556;55.748;13.194;2023-02-28T10:45:56;13.60;;;9.67;;
11771;SDS011;12556;55.748;13.194;2023-02-28T10:48:27;13.03;;;10.23;;
11771;SDS011;12556;55.748;13.194;2023-02-28T10:50:58;13.73;;;10.13;;
11771;SDS011;12556;55.748;13.194;2023-02-28T10:53:30;13.00;;;9.53;;
11771;SDS011;12556;55.748;13.194;2023-02-28T10:56:00;12.80;;;9.60;;
11771;SDS011;12556;55.748;13.194;2023-02-28T10:58:29;10.93;;;8.97;;
11771;SDS011;12556;55.748;13.194;2023-02-28T11:00:58;14.77;;;8.30;;
11771;SDS011;12556;55.748;13.194;2023-02-28T11:03:29;10.70;;;8.63;;
11771;SDS011;12556;55.748;13.194;2023-02-28T11:06:03;10.30;;;8.87;;
11771;SDS011;12556;55.748;13.194;2023-02-28T11:08:32;12.37;;;9.60;;
11771;SDS011;12556;55.748;13.194;2023-02-28T11:11:01;10.43;;;8.53;;
11771;SDS011;12556;55.748;13.194;2023-02-28T11:13:32;14.40;;;9.57;;
11771;SDS011;12556;55.748;13.194;2023-02-28T11:16:00;10.47;;;8.63;;
11771;SDS011;12556;55.748;13.194;2023-02-28T11:18:30;11.20;;;8.87;;
11771;SDS011;12556;55.748;13.194;2023-02-28T11:21:05;12.87;;;9.33;;
11771;SDS011;12556;55.748;13.194;2023-02-28T11:23:34;13.83;;;8.97;;
11771;SDS011;12556;55.748;13.194;2023-02-28T11:26:03;12.57;;;8.50;;
11771;SDS011;12556;55.748;13.194;2023-02-28T11:28:35;12.63;;;9.20;;
11771;SDS011;12556;55.748;13.194;2023-02-28T11:31:05;14.93;;;9.13;;
11771;SDS011;12556;55.748;13.194;2023-02-28T11:33:42;16.27;;;9.33;;
11771;SDS011;12556;55.748;13.194;2023-02-28T11:36:12;10.13;;;8.50;;
11771;SDS011;12556;55.748;13.194;2023-02-28T11:38:41;12.20;;;8.20;;
11771;SDS011;12556;55.748;13.194;2023-02-28T11:41:21;11.53;;;8.47;;
11771;SDS011;12556;55.748;13.194;2023-02-28T11:44:17;12.97;;;8.30;;
11771;SDS011;12556;55.748;13.194;2023-02-28T11:46:56;9.93;;;8.23;;
11771;SDS011;12556;55.748;13.194;2023-02-28T11:49:32;13.53;;;8.60;;
11771;SDS011;12556;55.748;13.194;2023-02-28T11:52:08;12.07;;;8.73;;
11771;SDS011;12556;55.748;13.194;2023-02-28T11:54:56;9.43;;;7.70;;
11771;SDS011;12556;55.748;13.194;2023-02-28T11:57:35;12.67;;;7.23;;
11771;SDS011;12556;55.748;13.194;2023-02-28T12:00:14;10.27;;;7.10;;
11771;SDS011;12556;55.748;13.194;2023-02-28T12:02:55;9.30;;;7.33;;
11771;SDS011;12556;55.748;13.194;2023-02-28T12:05:31;8.83;;;7.53;;
11771;SDS011;12556;55.748;13.194;2023-02-28T12:08:06;13.00;;;7.87;;
11771;SDS011;12556;55.748;13.194;2023-02-28T12:10:51;7.67;;;6.10;;
11771;SDS011;12556;55.748;13.194;2023-02-28T12:13:29;10.17;;;6.97;;
11771;SDS011;12556;55.748;13.194;2023-02-28T12:19:12;9.50;;;6.13;;
11771;SDS011;12556;55.748;13.194;2023-02-28T12:21:52;11.27;;;6.97;;
11771;SDS011;12556;55.748;13.194;2023-02-28T12:24:39;10.17;;;7.13;;
11771;SDS011;12556;55.748;13.194;2023-02-28T12:27:21;8.17;;;6.57;;
11771;SDS011;12556;55.748;13.194;2023-02-28T12:29:52;12.57;;;6.77;;
11771;SDS011;12556;55.748;13.194;2023-02-28T12:32:24;11.13;;;7.37;;
11771;SDS011;12556;55.748;13.194;2023-02-28T12:34:55;7.00;;;6.20;;
11771;SDS011;12556;55.748;13.194;2023-02-28T12:37:26;7.97;;;6.17;;
11771;SDS011;12556;55.748;13.194;2023-02-28T12:40:01;9.87;;;6.73;;
11771;SDS011;12556;55.748;13.194;2023-02-28T12:42:32;7.93;;;7.07;;
11771;SDS011;12556;55.748;13.194;2023-02-28T12:45:04;8.13;;;6.20;;
11771;SDS011;12556;55.748;13.194;2023-02-28T12:47:36;7.20;;;6.07;;
11771;SDS011;12556;55.748;13.194;2023-02-28T12:50:07;10.27;;;6.17;;
11771;SDS011;12556;55.748;13.194;2023-02-28T12:52:39;8.43;;;6.60;;
11771;SDS011;12556;55.748;13.194;2023-02-28T12:55:15;9.90;;;6.90;;
11771;SDS011;12556;55.748;13.194;2023-02-28T12:57:52;7.43;;;5.97;;
11771;SDS011;12556;55.748;13.194;2023-02-28T13:00:29;8.10;;;6.03;;
11771;SDS011;12556;55.748;13.194;2023-02-28T13:05:46;7.27;;;6.50;;
11771;SDS011;12556;55.748;13.194;2023-02-28T13:08:37;11.70;;;6.77;;
11771;SDS011;12556;55.748;13.194;2023-02-28T13:11:24;9.13;;;6.87;;
11771;SDS011;12556;55.748;13.194;2023-02-28T13:13:57;8.27;;;6.20;;
11771;SDS011;12556;55.748;13.194;2023-02-28T13:16:26;9.47;;;6.10;;
11771;SDS011;12556;55.748;13.194;2023-02-28T13:18:53;7.93;;;5.63;;
11771;SDS011;12556;55.748;13.194;2023-02-28T13:21:41;9.47;;;5.90;;
11771;SDS011;12556;55.748;13.194;2023-02-28T13:24:10;9.67;;;6.23;;
11771;SDS011;12556;55.748;13.194;2023-02-28T13:29:57;9.73;;;6.93;;
11771;SDS011;12556;55.748;13.194;2023-02-28T13:32:28;8.47;;;6.93;;
11771;SDS011;12556;55.748;13.194;2023-02-28T13:38:01;10.53;;;8.53;;
11771;SDS011;12556;55.748;13.194;2023-02-28T13:40:41;15.83;;;9.33;;
11771;SDS011;12556;55.748;13.194;2023-02-28T13:43:08;11.70;;;8.47;;
11771;SDS011;12556;55.748;13.194;2023-02-28T13:45:37;11.17;;;7.87;;
11771;SDS011;12556;55.748;13.194;2023-02-28T13:48:05;13.40;;;8.93;;
11771;SDS011;12556;55.748;13.194;2023-02-28T13:50:43;13.87;;;9.03;;
11771;SDS011;12556;55.748;13.194;2023-02-28T13:53:22;14.90;;;8.50;;
11771;SDS011;12556;55.748;13.194;2023-02-28T13:56:01;9.97;;;6.57;;
11771;SDS011;12556;55.748;13.194;2023-02-28T13:58:38;10.03;;;6.83;;
11771;SDS011;12556;55.748;13.194;2023-02-28T14:01:21;8.87;;;6.50;;
11771;SDS011;12556;55.748;13.194;2023-02-28T14:03:58;13.73;;;6.87;;
11771;SDS011;12556;55.748;13.194;2023-02-28T14:06:38;13.47;;;6.93;;
11771;SDS011;12556;55.748;13.194;2023-02-28T14:09:16;13.83;;;7.33;;
11771;SDS011;12556;55.748;13.194;2023-02-28T14:11:49;8.97;;;6.57;;
11771;SDS011;12556;55.748;13.194;2023-02-28T14:17:22;7.80;;;5.10;;
11771;SDS011;12556;55.748;13.194;2023-02-28T14:19:51;8.40;;;4.93;;
11771;SDS011;12556;55.748;13.194;2023-02-28T14:22:21;6.97;;;4.70;;
11771;SDS011;12556;55.748;13.194;2023-02-28T14:25:11;6.83;;;4.47;;
11771;SDS011;12556;55.748;13.194;2023-02-28T14:27:48;8.90;;;4.77;;
11771;SDS011;12556;55.748;13.194;2023-02-28T14:33:26;5.00;;;4.47;;
11771;SDS011;12556;55.748;13.194;2023-02-28T14:36:01;6.00;;;4.27;;
11771;SDS011;12556;55.748;13.194;2023-02-28T14:38:35;8.77;;;3.97;;
11771;SDS011;12556;55.748;13.194;2023-02-28T14:41:12;10.13;;;5.10;;
11771;SDS011;12556;55.748;13.194;2023-02-28T14:43:48;8.13;;;5.50;;
11771;SDS011;12556;55.748;13.194;2023-02-28T14:46:17;7.57;;;5.47;;
11771;SDS011;12556;55.748;13.194;2023-02-28T14:48:46;7.20;;;5.07;;
11771;SDS011;12556;55.748;13.194;2023-02-28T14:51:17;7.70;;;5.20;;
11771;SDS011;12556;55.748;13.194;2023-02-28T14:53:47;7.83;;;5.67;;
11771;SDS011;12556;55.748;13.194;2023-02-28T14:56:27;9.40;;;5.50;;
11771;SDS011;12556;55.748;13.194;2023-02-28T14:58:58;9.73;;;5.77;;
11771;SDS011;12556;55.748;13.194;2023-02-28T15:01:25;9.50;;;5.43;;
11771;SDS011;12556;55.748;13.194;2023-02-28T15:03:58;16.40;;;8.67;;